sensor_id;sensor_type;location;lat;lon;timestamp;pressure;altitude;pressure_sealevel;temperature;humidity
19827;BME280;10074;52.018;4.726;2022-07-15T00:03:13;46193.19;;;-144.79;100.00
19827;BME280;10074;52.018;4.726;2022-07-15T00:08:13;46183.16;;;-144.79;100.00
19827;BME280;10074;52.018;4.726;2022-07-15T00:13:14;46185.16;;;-144.79;100.00
19827;BME280;10074;52.018;4.726;2022-07-15T00:18:14;46183.16;;;-144.79;100.00
19827;BME280;10074;52.018;4.726;2022-07-15T00:23:15;46183.16;;;-144.79;100.00
19827;BME280;10074;52.018;4.726;2022-07-15T00:28:15;46183.16;;;-144.79;100.00
19827;BME280;10074;52.018;4.726;2022-07-15T00:33:15;46167.13;;;-144.79;100.00
19827;BME280;10074;52.018;4.726;2022-07-15T00:38:16;46191.19;;;-144.79;100.00
19827;BME280;10074;52.018;4.726;2022-07-15T00:43:18;46189.19;;;-144.79;100.00
19827;BME280;10074;52.018;4.726;2022-07-15T00:48:19;46177.16;;;-144.79;100.00
19827;BME280;10074;52.018;4.726;2022-07-15T00:53:20;46177.16;;;-144.79;100.00
19827;BME280;10074;52.018;4.726;2022-07-15T00:58:22;46173.13;;;-144.79;100.00
19827;BME280;10074;52.018;4.726;2022-07-15T01:03:25;46175.16;;;-144.79;100.00
19827;BME280;10074;52.018;4.726;2022-07-15T01:08:26;46183.16;;;-144.79;100.00
19827;BME280;10074;52.018;4.726;2022-07-15T01:13:27;46191.19;;;-144.79;100.00
19827;BME280;10074;52.018;4.726;2022-07-15T01:18:27;46191.19;;;-144.79;100.00
19827;BME280;10074;52.018;4.726;2022-07-15T01:23:27;46169.13;;;-144.79;100.00
19827;BME280;10074;52.018;4.726;2022-07-15T01:28:28;46179.16;;;-144.79;100.00
19827;BME280;10074;52.018;4.726;2022-07-15T01:33:28;46173.13;;;-144.79;100.00
19827;BME280;10074;52.018;4.726;2022-07-15T01:38:30;46173.13;;;-144.79;100.00
19827;BME280;10074;52.018;4.726;2022-07-15T01:43:30;46181.16;;;-144.79;100.00
19827;BME280;10074;52.018;4.726;2022-07-15T01:48:40;46187.19;;;-144.79;100.00
19827;BME280;10074;52.018;4.726;2022-07-15T01:53:59;46195.19;;;-144.79;100.00
19827;BME280;10074;52.018;4.726;2022-07-15T01:59:00;46169.13;;;-144.79;100.00
19827;BME280;10074;52.018;4.726;2022-07-15T02:04:00;46183.16;;;-144.79;100.00
19827;BME280;10074;52.018;4.726;2022-07-15T02:09:00;46183.16;;;-144.79;100.00
19827;BME280;10074;52.018;4.726;2022-07-15T02:14:01;46165.13;;;-144.79;100.00
19827;BME280;10074;52.018;4.726;2022-07-15T02:19:02;46175.16;;;-144.79;100.00
19827;BME280;10074;52.018;4.726;2022-07-15T02:24:03;46175.16;;;-144.79;100.00
19827;BME280;10074;52.018;4.726;2022-07-15T02:29:03;46175.16;;;-144.79;100.00
19827;BME280;10074;52.018;4.726;2022-07-15T02:34:04;46171.13;;;-144.79;100.00
19827;BME280;10074;52.018;4.726;2022-07-15T02:39:04;46181.16;;;-144.79;100.00
19827;BME280;10074;52.018;4.726;2022-07-15T02:44:05;46161.09;;;-144.79;100.00
19827;BME280;10074;52.018;4.726;2022-07-15T02:49:06;46167.13;;;-144.79;100.00
19827;BME280;10074;52.018;4.726;2022-07-15T02:54:06;46167.13;;;-144.79;100.00
19827;BME280;10074;52.018;4.726;2022-07-15T02:59:07;46161.09;;;-144.79;100.00
19827;BME280;10074;52.018;4.726;2022-07-15T03:04:07;46169.13;;;-144.79;100.00
19827;BME280;10074;52.018;4.726;2022-07-15T03:09:07;46175.16;;;-144.79;100.00
19827;BME280;10074;52.018;4.726;2022-07-15T03:14:08;46163.13;;;-144.79;100.00
19827;BME280;10074;52.018;4.726;2022-07-15T03:19:09;46167.13;;;-144.79;100.00
19827;BME280;10074;52.018;4.726;2022-07-15T03:24:09;46171.13;;;-144.79;100.00
19827;BME280;10074;52.018;4.726;2022-07-15T03:29:12;46161.09;;;-144.79;100.00
19827;BME280;10074;52.018;4.726;2022-07-15T03:34:16;46173.13;;;-144.79;100.00
19827;BME280;10074;52.018;4.726;2022-07-15T03:39:17;46175.16;;;-144.79;100.00
19827;BME280;10074;52.018;4.726;2022-07-15T03:44:17;46173.13;;;-144.79;100.00
19827;BME280;10074;52.018;4.726;2022-07-15T03:49:18;46175.16;;;-144.79;100.00
19827;BME280;10074;52.018;4.726;2022-07-15T03:54:18;46183.16;;;-144.79;100.00
19827;BME280;10074;52.018;4.726;2022-07-15T03:59:20;46161.09;;;-144.79;100.00
19827;BME280;10074;52.018;4.726;2022-07-15T04:04:21;46171.13;;;-144.79;100.00
19827;BME280;10074;52.018;4.726;2022-07-15T04:09:21;46161.09;;;-144.79;100.00
19827;BME280;10074;52.018;4.726;2022-07-15T04:14:22;46185.16;;;-144.79;100.00
19827;BME280;10074;52.018;4.726;2022-07-15T04:19:22;46155.09;;;-144.79;100.00
19827;BME280;10074;52.018;4.726;2022-07-15T04:24:23;46167.13;;;-144.79;100.00
19827;BME280;10074;52.018;4.726;2022-07-15T04:29:23;46157.09;;;-144.79;100.00
19827;BME280;10074;52.018;4.726;2022-07-15T04:34:23;46171.13;;;-144.79;100.00
19827;BME280;10074;52.018;4.726;2022-07-15T04:39:24;46163.13;;;-144.79;100.00
19827;BME280;10074;52.018;4.726;2022-07-15T04:44:24;46183.16;;;-144.79;100.00
19827;BME280;10074;52.018;4.726;2022-07-15T04:49:24;46173.13;;;-144.79;100.00
19827;BME280;10074;52.018;4.726;2022-07-15T04:54:43;46175.16;;;-144.79;100.00
19827;BME280;10074;52.018;4.726;2022-07-15T04:59:44;46163.13;;;-144.79;100.00
19827;BME280;10074;52.018;4.726;2022-07-15T05:04:44;46159.09;;;-144.79;100.00
19827;BME280;10074;52.018;4.726;2022-07-15T05:09:45;46161.09;;;-144.79;100.00
19827;BME280;10074;52.018;4.726;2022-07-15T05:14:45;46155.09;;;-144.79;100.00
19827;BME280;10074;52.018;4.726;2022-07-15T05:19:45;46171.13;;;-144.79;100.00
19827;BME280;10074;52.018;4.726;2022-07-15T05:24:46;46175.16;;;-144.79;100.00
19827;BME280;10074;52.018;4.726;2022-07-15T05:29:46;46177.16;;;-144.79;100.00
19827;BME280;10074;52.018;4.726;2022-07-15T05:34:47;46167.13;;;-144.79;100.00
19827;BME280;10074;52.018;4.726;2022-07-15T05:39:47;46161.09;;;-144.79;100.00
19827;BME280;10074;52.018;4.726;2022-07-15T05:44:53;46153.09;;;-144.79;100.00
19827;BME280;10074;52.018;4.726;2022-07-15T05:49:54;46167.13;;;-144.79;100.00
19827;BME280;10074;52.018;4.726;2022-07-15T05:54:54;46159.09;;;-144.79;100.00
19827;BME280;10074;52.018;4.726;2022-07-15T05:59:54;46155.09;;;-144.79;100.00
19827;BME280;10074;52.018;4.726;2022-07-15T06:04:55;46171.13;;;-144.79;100.00
19827;BME280;10074;52.018;4.726;2022-07-15T06:09:55;46167.13;;;-144.79;100.00
19827;BME280;10074;52.018;4.726;2022-07-15T06:14:55;46177.16;;;-144.79;100.00
19827;BME280;10074;52.018;4.726;2022-07-15T06:19:56;46169.13;;;-144.79;100.00
19827;BME280;10074;52.018;4.726;2022-07-15T06:24:56;46171.13;;;-144.79;100.00
19827;BME280;10074;52.018;4.726;2022-07-15T06:29:57;46165.13;;;-144.79;100.00
19827;BME280;10074;52.018;4.726;2022-07-15T06:34:57;46183.16;;;-144.79;100.00
19827;BME280;10074;52.018;4.726;2022-07-15T06:39:57;46169.13;;;-144.79;100.00
19827;BME280;10074;52.018;4.726;2022-07-15T06:44:58;46185.16;;;-144.79;100.00
19827;BME280;10074;52.018;4.726;2022-07-15T06:50:02;46171.13;;;-144.79;100.00
19827;BME280;10074;52.018;4.726;2022-07-15T06:55:03;46175.16;;;-144.79;100.00
19827;BME280;10074;52.018;4.726;2022-07-15T07:00:04;46163.13;;;-144.79;100.00
19827;BME280;10074;52.018;4.726;2022-07-15T07:05:06;46165.13;;;-144.79;100.00
19827;BME280;10074;52.018;4.726;2022-07-15T07:10:07;46167.13;;;-144.79;100.00
19827;BME280;10074;52.018;4.726;2022-07-15T07:15:08;46157.09;;;-144.79;100.00
19827;BME280;10074;52.018;4.726;2022-07-15T07:20:09;46175.16;;;-144.79;100.00
19827;BME280;10074;52.018;4.726;2022-07-15T07:25:10;46183.16;;;-144.79;100.00
19827;BME280;10074;52.018;4.726;2022-07-15T07:30:10;46151.09;;;-144.79;100.00
19827;BME280;10074;52.018;4.726;2022-07-15T07:35:11;46165.13;;;-144.79;100.00
19827;BME280;10074;52.018;4.726;2022-07-15T07:40:12;46175.16;;;-144.79;100.00
19827;BME280;10074;52.018;4.726;2022-07-15T07:45:12;46167.13;;;-144.79;100.00
19827;BME280;10074;52.018;4.726;2022-07-15T07:50:12;46167.13;;;-144.79;100.00
19827;BME280;10074;52.018;4.726;2022-07-15T07:55:13;46167.13;;;-144.79;100.00
19827;BME280;10074;52.018;4.726;2022-07-15T08:00:15;46165.13;;;-144.79;100.00
19827;BME280;10074;52.018;4.726;2022-07-15T08:05:16;46177.16;;;-144.79;100.00
19827;BME280;10074;52.018;4.726;2022-07-15T08:10:17;46171.13;;;-144.79;100.00
19827;BME280;10074;52.018;4.726;2022-07-15T08:15:19;46151.09;;;-144.79;100.00
19827;BME280;10074;52.018;4.726;2022-07-15T08:20:19;46139.06;;;-144.79;100.00
19827;BME280;10074;52.018;4.726;2022-07-15T08:25:20;46129.03;;;-144.79;100.00
19827;BME280;10074;52.018;4.726;2022-07-15T08:30:21;46171.13;;;-144.79;100.00
19827;BME280;10074;52.018;4.726;2022-07-15T08:35:22;46151.09;;;-144.79;100.00
19827;BME280;10074;52.018;4.726;2022-07-15T08:40:23;46155.09;;;-144.79;100.00
19827;BME280;10074;52.018;4.726;2022-07-15T08:45:24;46104.97;;;-144.79;100.00
19827;BME280;10074;52.018;4.726;2022-07-15T08:50:24;46127.03;;;-144.79;100.00
19827;BME280;10074;52.018;4.726;2022-07-15T08:55:26;46110.97;;;-144.79;100.00
19827;BME280;10074;52.018;4.726;2022-07-15T09:00:27;46115.00;;;-144.79;100.00
19827;BME280;10074;52.018;4.726;2022-07-15T09:05:33;46119.00;;;-144.79;100.00
19827;BME280;10074;52.018;4.726;2022-07-15T09:10:57;46090.94;;;-144.79;100.00
19827;BME280;10074;52.018;4.726;2022-07-15T09:16:18;46110.97;;;-144.79;100.00
19827;BME280;10074;52.018;4.726;2022-07-15T09:21:23;46113.00;;;-144.79;100.00
19827;BME280;10074;52.018;4.726;2022-07-15T09:26:34;46143.06;;;-144.79;100.00
19827;BME280;10074;52.018;4.726;2022-07-15T09:31:38;46125.03;;;-144.79;100.00
19827;BME280;10074;52.018;4.726;2022-07-15T09:37:03;46119.00;;;-144.79;100.00
19827;BME280;10074;52.018;4.726;2022-07-15T09:42:06;46135.03;;;-144.79;100.00
19827;BME280;10074;52.018;4.726;2022-07-15T09:47:16;46121.00;;;-144.79;100.00
19827;BME280;10074;52.018;4.726;2022-07-15T09:52:17;46115.00;;;-144.79;100.00
19827;BME280;10074;52.018;4.726;2022-07-15T09:57:18;46119.00;;;-144.79;100.00
19827;BME280;10074;52.018;4.726;2022-07-15T10:02:19;46119.00;;;-144.79;100.00
19827;BME280;10074;52.018;4.726;2022-07-15T10:07:20;46113.00;;;-144.79;100.00
19827;BME280;10074;52.018;4.726;2022-07-15T10:12:23;46139.06;;;-144.79;100.00
19827;BME280;10074;52.018;4.726;2022-07-15T10:17:36;46151.09;;;-144.79;100.00
19827;BME280;10074;52.018;4.726;2022-07-15T10:33:10;46113.00;;;-144.79;100.00
19827;BME280;10074;52.018;4.726;2022-07-15T10:38:35;46127.03;;;-144.79;100.00
19827;BME280;10074;52.018;4.726;2022-07-15T10:43:49;46163.13;;;-144.79;100.00
19827;BME280;10074;52.018;4.726;2022-07-15T10:59:24;46157.09;;;-144.79;100.00
19827;BME280;10074;52.018;4.726;2022-07-15T11:04:29;46133.03;;;-144.79;100.00
19827;BME280;10074;52.018;4.726;2022-07-15T11:14:57;46129.03;;;-144.79;100.00
19827;BME280;10074;52.018;4.726;2022-07-15T11:20:02;46125.03;;;-144.79;100.00
19827;BME280;10074;52.018;4.726;2022-07-15T11:25:18;46098.97;;;-144.79;100.00
19827;BME280;10074;52.018;4.726;2022-07-15T11:30:18;46129.03;;;-144.79;100.00
19827;BME280;10074;52.018;4.726;2022-07-15T11:35:20;46157.09;;;-144.79;100.00
19827;BME280;10074;52.018;4.726;2022-07-15T11:40:20;46106.97;;;-144.79;100.00
19827;BME280;10074;52.018;4.726;2022-07-15T11:45:39;46127.03;;;-144.79;100.00
19827;BME280;10074;52.018;4.726;2022-07-15T11:50:54;46157.09;;;-144.79;100.00
19827;BME280;10074;52.018;4.726;2022-07-15T11:55:56;46123.00;;;-144.79;100.00
19827;BME280;10074;52.018;4.726;2022-07-15T12:00:58;46121.00;;;-144.79;100.00
19827;BME280;10074;52.018;4.726;2022-07-15T12:06:04;46157.09;;;-144.79;100.00
19827;BME280;10074;52.018;4.726;2022-07-15T12:16:17;46173.13;;;-144.79;100.00
19827;BME280;10074;52.018;4.726;2022-07-15T12:21:19;46147.06;;;-144.79;100.00
19827;BME280;10074;52.018;4.726;2022-07-15T12:26:19;46167.13;;;-144.79;100.00
19827;BME280;10074;52.018;4.726;2022-07-15T12:31:25;46161.09;;;-144.79;100.00
19827;BME280;10074;52.018;4.726;2022-07-15T12:36:33;46195.19;;;-144.79;100.00
19827;BME280;10074;52.018;4.726;2022-07-15T12:41:35;46165.13;;;-144.79;100.00
19827;BME280;10074;52.018;4.726;2022-07-15T12:46:52;46161.09;;;-144.79;100.00
19827;BME280;10074;52.018;4.726;2022-07-15T12:51:54;46143.06;;;-144.79;100.00
19827;BME280;10074;52.018;4.726;2022-07-15T12:56:54;46127.03;;;-144.79;100.00
19827;BME280;10074;52.018;4.726;2022-07-15T13:02:02;46143.06;;;-144.79;100.00
19827;BME280;10074;52.018;4.726;2022-07-15T13:07:02;46131.03;;;-144.79;100.00
19827;BME280;10074;52.018;4.726;2022-07-15T13:12:02;46137.06;;;-144.79;100.00
19827;BME280;10074;52.018;4.726;2022-07-15T13:17:03;46145.06;;;-144.79;100.00
19827;BME280;10074;52.018;4.726;2022-07-15T13:22:04;46139.06;;;-144.79;100.00
19827;BME280;10074;52.018;4.726;2022-07-15T13:27:04;46115.00;;;-144.79;100.00
19827;BME280;10074;52.018;4.726;2022-07-15T13:32:04;46131.03;;;-144.79;100.00
19827;BME280;10074;52.018;4.726;2022-07-15T13:37:05;46115.00;;;-144.79;100.00
19827;BME280;10074;52.018;4.726;2022-07-15T13:42:05;46086.94;;;-144.79;100.00
19827;BME280;10074;52.018;4.726;2022-07-15T13:47:05;46123.00;;;-144.79;100.00
19827;BME280;10074;52.018;4.726;2022-07-15T13:52:06;46094.94;;;-144.79;100.00
19827;BME280;10074;52.018;4.726;2022-07-15T13:57:06;46106.97;;;-144.79;100.00
19827;BME280;10074;52.018;4.726;2022-07-15T14:02:07;46082.91;;;-144.79;100.00
19827;BME280;10074;52.018;4.726;2022-07-15T14:07:07;46098.97;;;-144.79;100.00
19827;BME280;10074;52.018;4.726;2022-07-15T14:12:08;46117.00;;;-144.79;100.00
19827;BME280;10074;52.018;4.726;2022-07-15T14:17:08;46084.91;;;-144.79;100.00
19827;BME280;10074;52.018;4.726;2022-07-15T14:22:08;46113.00;;;-144.79;100.00
19827;BME280;10074;52.018;4.726;2022-07-15T14:27:09;46102.97;;;-144.79;100.00
19827;BME280;10074;52.018;4.726;2022-07-15T14:32:09;46072.88;;;-144.79;100.00
19827;BME280;10074;52.018;4.726;2022-07-15T14:37:10;46098.97;;;-144.79;100.00
19827;BME280;10074;52.018;4.726;2022-07-15T14:42:10;46106.97;;;-144.79;100.00
19827;BME280;10074;52.018;4.726;2022-07-15T14:47:11;46094.94;;;-144.79;100.00
19827;BME280;10074;52.018;4.726;2022-07-15T14:52:12;46088.94;;;-144.79;100.00
19827;BME280;10074;52.018;4.726;2022-07-15T14:57:12;46125.03;;;-144.79;100.00
19827;BME280;10074;52.018;4.726;2022-07-15T15:02:12;46106.97;;;-144.79;100.00
19827;BME280;10074;52.018;4.726;2022-07-15T15:07:12;46115.00;;;-144.79;100.00
19827;BME280;10074;52.018;4.726;2022-07-15T15:12:13;46108.97;;;-144.79;100.00
19827;BME280;10074;52.018;4.726;2022-07-15T15:17:13;46123.00;;;-144.79;100.00
19827;BME280;10074;52.018;4.726;2022-07-15T15:22:14;46117.00;;;-144.79;100.00
19827;BME280;10074;52.018;4.726;2022-07-15T15:27:14;46133.03;;;-144.79;100.00
19827;BME280;10074;52.018;4.726;2022-07-15T15:32:15;46100.97;;;-144.79;100.00
19827;BME280;10074;52.018;4.726;2022-07-15T15:37:16;46090.94;;;-144.79;100.00
19827;BME280;10074;52.018;4.726;2022-07-15T15:42:17;46092.94;;;-144.79;100.00
19827;BME280;10074;52.018;4.726;2022-07-15T15:47:17;46086.94;;;-144.79;100.00
19827;BME280;10074;52.018;4.726;2022-07-15T15:52:17;46117.00;;;-144.79;100.00
19827;BME280;10074;52.018;4.726;2022-07-15T15:57:18;46074.91;;;-144.79;100.00
19827;BME280;10074;52.018;4.726;2022-07-15T16:02:18;46100.97;;;-144.79;100.00
19827;BME280;10074;52.018;4.726;2022-07-15T16:07:18;46098.97;;;-144.79;100.00
19827;BME280;10074;52.018;4.726;2022-07-15T16:12:19;46115.00;;;-144.79;100.00
19827;BME280;10074;52.018;4.726;2022-07-15T16:17:19;46094.94;;;-144.79;100.00
19827;BME280;10074;52.018;4.726;2022-07-15T16:22:20;46090.94;;;-144.79;100.00
19827;BME280;10074;52.018;4.726;2022-07-15T16:27:38;46068.88;;;-144.79;100.00
19827;BME280;10074;52.018;4.726;2022-07-15T16:32:39;46086.94;;;-144.79;100.00
19827;BME280;10074;52.018;4.726;2022-07-15T16:37:39;46086.94;;;-144.79;100.00
19827;BME280;10074;52.018;4.726;2022-07-15T16:42:40;46123.00;;;-144.79;100.00
19827;BME280;10074;52.018;4.726;2022-07-15T16:47:40;46092.94;;;-144.79;100.00
19827;BME280;10074;52.018;4.726;2022-07-15T16:52:41;46119.00;;;-144.79;100.00
19827;BME280;10074;52.018;4.726;2022-07-15T16:57:42;46088.94;;;-144.79;100.00
19827;BME280;10074;52.018;4.726;2022-07-15T17:02:42;46098.97;;;-144.79;100.00
19827;BME280;10074;52.018;4.726;2022-07-15T17:07:42;46106.97;;;-144.79;100.00
19827;BME280;10074;52.018;4.726;2022-07-15T17:12:43;46094.94;;;-144.79;100.00
19827;BME280;10074;52.018;4.726;2022-07-15T17:17:43;46102.97;;;-144.79;100.00
19827;BME280;10074;52.018;4.726;2022-07-15T17:22:44;46090.94;;;-144.79;100.00
19827;BME280;10074;52.018;4.726;2022-07-15T17:27:44;46090.94;;;-144.79;100.00
19827;BME280;10074;52.018;4.726;2022-07-15T17:32:45;46088.94;;;-144.79;100.00
19827;BME280;10074;52.018;4.726;2022-07-15T17:37:46;46110.97;;;-144.79;100.00
19827;BME280;10074;52.018;4.726;2022-07-15T17:42:46;46102.97;;;-144.79;100.00
19827;BME280;10074;52.018;4.726;2022-07-15T17:47:46;46106.97;;;-144.79;100.00
19827;BME280;10074;52.018;4.726;2022-07-15T17:52:47;46094.94;;;-144.79;100.00
19827;BME280;10074;52.018;4.726;2022-07-15T17:57:47;46082.91;;;-144.79;100.00
19827;BME280;10074;52.018;4.726;2022-07-15T18:02:48;46088.94;;;-144.79;100.00
19827;BME280;10074;52.018;4.726;2022-07-15T18:07:48;46086.94;;;-144.79;100.00
19827;BME280;10074;52.018;4.726;2022-07-15T18:12:48;46113.00;;;-144.79;100.00
19827;BME280;10074;52.018;4.726;2022-07-15T18:17:48;46115.00;;;-144.79;100.00
19827;BME280;10074;52.018;4.726;2022-07-15T18:22:49;46080.91;;;-144.79;100.00
19827;BME280;10074;52.018;4.726;2022-07-15T18:27:49;46100.97;;;-144.79;100.00
19827;BME280;10074;52.018;4.726;2022-07-15T18:32:50;46127.03;;;-144.79;100.00
19827;BME280;10074;52.018;4.726;2022-07-15T18:37:50;46092.94;;;-144.79;100.00
19827;BME280;10074;52.018;4.726;2022-07-15T18:42:50;46106.97;;;-144.79;100.00
19827;BME280;10074;52.018;4.726;2022-07-15T18:47:51;46106.97;;;-144.79;100.00
19827;BME280;10074;52.018;4.726;2022-07-15T18:52:51;46090.94;;;-144.79;100.00
19827;BME280;10074;52.018;4.726;2022-07-15T18:57:51;46106.97;;;-144.79;100.00
19827;BME280;10074;52.018;4.726;2022-07-15T19:02:51;46104.97;;;-144.79;100.00
19827;BME280;10074;52.018;4.726;2022-07-15T19:07:52;46108.97;;;-144.79;100.00
19827;BME280;10074;52.018;4.726;2022-07-15T19:12:53;46092.94;;;-144.79;100.00
19827;BME280;10074;52.018;4.726;2022-07-15T19:17:53;46082.91;;;-144.79;100.00
19827;BME280;10074;52.018;4.726;2022-07-15T19:22:54;46113.00;;;-144.79;100.00
19827;BME280;10074;52.018;4.726;2022-07-15T19:27:54;46098.97;;;-144.79;100.00
19827;BME280;10074;52.018;4.726;2022-07-15T19:32:54;46100.97;;;-144.79;100.00
19827;BME280;10074;52.018;4.726;2022-07-15T19:37:54;46106.97;;;-144.79;100.00
19827;BME280;10074;52.018;4.726;2022-07-15T19:42:55;46106.97;;;-144.79;100.00
19827;BME280;10074;52.018;4.726;2022-07-15T19:47:55;46104.97;;;-144.79;100.00
19827;BME280;10074;52.018;4.726;2022-07-15T19:52:56;46096.94;;;-144.79;100.00
19827;BME280;10074;52.018;4.726;2022-07-15T19:57:56;46131.03;;;-144.79;100.00
19827;BME280;10074;52.018;4.726;2022-07-15T20:03:00;46106.97;;;-144.79;100.00
19827;BME280;10074;52.018;4.726;2022-07-15T20:08:02;46113.00;;;-144.79;100.00
19827;BME280;10074;52.018;4.726;2022-07-15T20:13:03;46096.94;;;-144.79;100.00
19827;BME280;10074;52.018;4.726;2022-07-15T20:18:04;46090.94;;;-144.79;100.00
19827;BME280;10074;52.018;4.726;2022-07-15T20:23:04;46102.97;;;-144.79;100.00
19827;BME280;10074;52.018;4.726;2022-07-15T20:28:04;46088.94;;;-144.79;100.00
19827;BME280;10074;52.018;4.726;2022-07-15T20:33:05;46100.97;;;-144.79;100.00
19827;BME280;10074;52.018;4.726;2022-07-15T20:38:06;46123.00;;;-144.79;100.00
19827;BME280;10074;52.018;4.726;2022-07-15T20:43:07;46102.97;;;-144.79;100.00
19827;BME280;10074;52.018;4.726;2022-07-15T20:48:07;46117.00;;;-144.79;100.00
19827;BME280;10074;52.018;4.726;2022-07-15T20:53:11;46110.97;;;-144.79;100.00
19827;BME280;10074;52.018;4.726;2022-07-15T20:58:13;46106.97;;;-144.79;100.00
19827;BME280;10074;52.018;4.726;2022-07-15T21:03:13;46090.94;;;-144.79;100.00
19827;BME280;10074;52.018;4.726;2022-07-15T21:08:14;46096.94;;;-144.79;100.00
19827;BME280;10074;52.018;4.726;2022-07-15T21:13:15;46086.94;;;-144.79;100.00
19827;BME280;10074;52.018;4.726;2022-07-15T21:18:15;46108.97;;;-144.79;100.00
19827;BME280;10074;52.018;4.726;2022-07-15T21:23:15;46100.97;;;-144.79;100.00
19827;BME280;10074;52.018;4.726;2022-07-15T21:28:16;46096.94;;;-144.79;100.00
19827;BME280;10074;52.018;4.726;2022-07-15T21:33:16;46113.00;;;-144.79;100.00
19827;BME280;10074;52.018;4.726;2022-07-15T21:38:17;46121.00;;;-144.79;100.00
19827;BME280;10074;52.018;4.726;2022-07-15T21:43:17;46106.97;;;-144.79;100.00
19827;BME280;10074;52.018;4.726;2022-07-15T21:48:19;46127.03;;;-144.79;100.00
19827;BME280;10074;52.018;4.726;2022-07-15T21:53:19;46115.00;;;-144.79;100.00
19827;BME280;10074;52.018;4.726;2022-07-15T21:58:20;46131.03;;;-144.79;100.00
19827;BME280;10074;52.018;4.726;2022-07-15T22:03:20;46125.03;;;-144.79;100.00
19827;BME280;10074;52.018;4.726;2022-07-15T22:08:21;46117.00;;;-144.79;100.00
19827;BME280;10074;52.018;4.726;2022-07-15T22:13:22;46125.03;;;-144.79;100.00
19827;BME280;10074;52.018;4.726;2022-07-15T22:18:22;46117.00;;;-144.79;100.00
19827;BME280;10074;52.018;4.726;2022-07-15T22:23:23;46131.03;;;-144.79;100.00
19827;BME280;10074;52.018;4.726;2022-07-15T22:28:24;46137.06;;;-144.79;100.00
19827;BME280;10074;52.018;4.726;2022-07-15T22:33:24;46143.06;;;-144.79;100.00
19827;BME280;10074;52.018;4.726;2022-07-15T22:38:24;46135.03;;;-144.79;100.00
19827;BME280;10074;52.018;4.726;2022-07-15T22:43:25;46135.03;;;-144.79;100.00
19827;BME280;10074;52.018;4.726;2022-07-15T22:48:25;46143.06;;;-144.79;100.00
19827;BME280;10074;52.018;4.726;2022-07-15T22:53:26;46147.06;;;-144.79;100.00
19827;BME280;10074;52.018;4.726;2022-07-15T22:58:26;46147.06;;;-144.79;100.00
19827;BME280;10074;52.018;4.726;2022-07-15T23:03:27;46157.09;;;-144.79;100.00
19827;BME280;10074;52.018;4.726;2022-07-15T23:08:28;46153.09;;;-144.79;100.00
19827;BME280;10074;52.018;4.726;2022-07-15T23:13:28;46151.09;;;-144.79;100.00
19827;BME280;10074;52.018;4.726;2022-07-15T23:18:29;46153.09;;;-144.79;100.00
19827;BME280;10074;52.018;4.726;2022-07-15T23:23:29;46173.13;;;-144.79;100.00
19827;BME280;10074;52.018;4.726;2022-07-15T23:28:29;46155.09;;;-144.79;100.00
19827;BME280;10074;52.018;4.726;2022-07-15T23:33:30;46165.13;;;-144.79;100.00
19827;BME280;10074;52.018;4.726;2022-07-15T23:38:30;46159.09;;;-144.79;100.00
19827;BME280;10074;52.018;4.726;2022-07-15T23:43:30;46157.09;;;-144.79;100.00
19827;BME280;10074;52.018;4.726;2022-07-15T23:48:31;46157.09;;;-144.79;100.00
19827;BME280;10074;52.018;4.726;2022-07-15T23:53:31;46159.09;;;-144.79;100.00
19827;BME280;10074;52.018;4.726;2022-07-15T23:58:32;46177.16;;;-144.79;100.00
